sensor_id;sensor_type;location;lat;lon;timestamp;pressure;altitude;pressure_sealevel;temperature;humidity
50250;BME280;36133;42.522;27.456;2023-06-14T00:01:33;100866.34;;;21.03;56.59
50250;BME280;36133;42.522;27.456;2023-06-14T00:04:00;100924.66;;;21.27;57.13
50250;BME280;36133;42.522;27.456;2023-06-14T00:06:33;100683.38;;;19.59;57.87
50250;BME280;36133;42.522;27.456;2023-06-14T00:08:59;100855.00;;;20.78;57.18
50250;BME280;36133;42.522;27.456;2023-06-14T00:11:24;100782.88;;;20.27;57.61
50250;BME280;36133;42.522;27.456;2023-06-14T00:13:52;100823.75;;;20.12;58.83
50250;BME280;36133;42.522;27.456;2023-06-14T00:16:17;100806.97;;;20.25;58.21
50250;BME280;36133;42.522;27.456;2023-06-14T00:18:45;100874.13;;;20.11;58.90
50250;BME280;36133;42.522;27.456;2023-06-14T00:21:11;100919.50;;;20.47;59.22
50250;BME280;36133;42.522;27.456;2023-06-14T00:23:37;100783.50;;;19.84;58.58
50250;BME280;36133;42.522;27.456;2023-06-14T00:26:03;100782.41;;;19.40;59.66
50250;BME280;36133;42.522;27.456;2023-06-14T00:28:32;100871.09;;;19.79;60.14
50250;BME280;36133;42.522;27.456;2023-06-14T00:30:58;100752.34;;;18.64;61.33
50250;BME280;36133;42.522;27.456;2023-06-14T00:33:24;100921.31;;;19.84;60.79
50250;BME280;36133;42.522;27.456;2023-06-14T00:35:51;100885.44;;;19.57;60.73
50250;BME280;36133;42.522;27.456;2023-06-14T00:38:19;100882.00;;;19.90;60.14
50250;BME280;36133;42.522;27.456;2023-06-14T00:40:45;100866.41;;;19.63;60.35
50250;BME280;36133;42.522;27.456;2023-06-14T00:43:11;100919.38;;;19.97;60.67
50250;BME280;36133;42.522;27.456;2023-06-14T00:45:36;100915.34;;;19.99;59.99
50250;BME280;36133;42.522;27.456;2023-06-14T00:48:03;100593.72;;;17.66;60.64
50250;BME280;36133;42.522;27.456;2023-06-14T00:50:31;100927.84;;;19.43;61.68
50250;BME280;36133;42.522;27.456;2023-06-14T00:53:01;100902.97;;;19.33;62.14
50250;BME280;36133;42.522;27.456;2023-06-14T00:55:28;100905.94;;;19.43;61.86
50250;BME280;36133;42.522;27.456;2023-06-14T00:57:55;100747.47;;;18.78;61.16
50250;BME280;36133;42.522;27.456;2023-06-14T01:00:21;100677.84;;;17.75;62.49
50250;BME280;36133;42.522;27.456;2023-06-14T01:02:47;100630.94;;;17.90;61.85
50250;BME280;36133;42.522;27.456;2023-06-14T01:05:13;100915.81;;;19.44;61.80
50250;BME280;36133;42.522;27.456;2023-06-14T01:07:51;100911.41;;;19.43;62.54
50250;BME280;36133;42.522;27.456;2023-06-14T01:15:18;100900.16;;;19.28;63.56
50250;BME280;36133;42.522;27.456;2023-06-14T01:17:46;100894.06;;;19.26;62.84
50250;BME280;36133;42.522;27.456;2023-06-14T01:20:17;100893.97;;;18.86;64.32
50250;BME280;36133;42.522;27.456;2023-06-14T01:22:50;100917.75;;;19.32;63.45
50250;BME280;36133;42.522;27.456;2023-06-14T01:25:17;100897.03;;;19.01;63.81
50250;BME280;36133;42.522;27.456;2023-06-14T01:27:49;100913.31;;;19.43;63.49
50250;BME280;36133;42.522;27.456;2023-06-14T01:30:17;100900.47;;;19.31;64.21
50250;BME280;36133;42.522;27.456;2023-06-14T01:32:44;100781.34;;;18.30;65.26
50250;BME280;36133;42.522;27.456;2023-06-14T01:35:11;100807.25;;;18.98;63.19
50250;BME280;36133;42.522;27.456;2023-06-14T01:37:37;100753.19;;;18.18;64.59
50250;BME280;36133;42.522;27.456;2023-06-14T01:40:06;100588.59;;;17.22;64.89
50250;BME280;36133;42.522;27.456;2023-06-14T01:42:35;100760.41;;;18.24;65.02
50250;BME280;36133;42.522;27.456;2023-06-14T01:45:03;100866.13;;;19.12;64.46
50250;BME280;36133;42.522;27.456;2023-06-14T01:47:30;100870.63;;;19.18;65.01
50250;BME280;36133;42.522;27.456;2023-06-14T01:49:56;100891.47;;;19.08;65.80
50250;BME280;36133;42.522;27.456;2023-06-14T01:52:21;100927.16;;;19.13;65.91
50250;BME280;36133;42.522;27.456;2023-06-14T01:54:50;100909.78;;;19.30;65.39
50250;BME280;36133;42.522;27.456;2023-06-14T01:57:15;100699.13;;;18.20;65.20
50250;BME280;36133;42.522;27.456;2023-06-14T01:59:41;100890.59;;;19.42;65.17
50250;BME280;36133;42.522;27.456;2023-06-14T02:02:07;100910.09;;;19.57;64.81
50250;BME280;36133;42.522;27.456;2023-06-14T02:04:32;100879.69;;;18.84;66.70
50250;BME280;36133;42.522;27.456;2023-06-14T02:06:58;100832.97;;;18.85;65.70
50250;BME280;36133;42.522;27.456;2023-06-14T02:09:24;100932.16;;;19.16;66.35
50250;BME280;36133;42.522;27.456;2023-06-14T02:11:50;100886.84;;;18.85;67.17
50250;BME280;36133;42.522;27.456;2023-06-14T02:14:15;100847.47;;;18.74;66.49
50250;BME280;36133;42.522;27.456;2023-06-14T02:16:42;100848.00;;;18.53;67.29
50250;BME280;36133;42.522;27.456;2023-06-14T02:19:15;100907.81;;;19.54;65.60
50250;BME280;36133;42.522;27.456;2023-06-14T02:21:41;100899.59;;;19.66;64.49
50250;BME280;36133;42.522;27.456;2023-06-14T02:24:06;100832.00;;;19.03;65.74
50250;BME280;36133;42.522;27.456;2023-06-14T02:26:32;100856.16;;;18.94;65.75
50250;BME280;36133;42.522;27.456;2023-06-14T02:28:58;100923.22;;;19.20;66.70
50250;BME280;36133;42.522;27.456;2023-06-14T02:31:23;100936.81;;;19.27;66.43
50250;BME280;36133;42.522;27.456;2023-06-14T02:33:49;100814.78;;;18.79;65.81
50250;BME280;36133;42.522;27.456;2023-06-14T02:36:18;100932.94;;;19.75;64.44
50250;BME280;36133;42.522;27.456;2023-06-14T02:38:43;100935.56;;;19.98;63.68
50250;BME280;36133;42.522;27.456;2023-06-14T02:41:09;100899.19;;;20.31;61.66
50250;BME280;36133;42.522;27.456;2023-06-14T02:43:34;100915.47;;;19.93;62.76
50250;BME280;36133;42.522;27.456;2023-06-14T02:46:00;100931.25;;;20.31;62.18
50250;BME280;36133;42.522;27.456;2023-06-14T02:48:26;100936.25;;;20.34;61.47
50250;BME280;36133;42.522;27.456;2023-06-14T02:50:52;100933.72;;;19.87;62.15
50250;BME280;36133;42.522;27.456;2023-06-14T02:53:17;100872.97;;;19.90;61.34
50250;BME280;36133;42.522;27.456;2023-06-14T02:55:43;100939.97;;;20.56;60.42
50250;BME280;36133;42.522;27.456;2023-06-14T02:58:09;100722.69;;;18.96;61.04
50250;BME280;36133;42.522;27.456;2023-06-14T03:00:58;100938.81;;;20.24;60.79
50250;BME280;36133;42.522;27.456;2023-06-14T03:03:28;100778.56;;;19.00;61.44
50250;BME280;36133;42.522;27.456;2023-06-14T03:05:54;100881.50;;;19.65;60.93
50250;BME280;36133;42.522;27.456;2023-06-14T03:08:20;100952.50;;;19.95;62.06
50250;BME280;36133;42.522;27.456;2023-06-14T03:10:46;100927.47;;;20.03;61.77
50250;BME280;36133;42.522;27.456;2023-06-14T03:13:15;100900.16;;;19.28;63.73
50250;BME280;36133;42.522;27.456;2023-06-14T03:15:42;100739.16;;;18.73;62.53
50250;BME280;36133;42.522;27.456;2023-06-14T03:18:09;100944.41;;;20.00;62.60
50250;BME280;36133;42.522;27.456;2023-06-14T03:20:38;100921.53;;;19.95;63.43
50250;BME280;36133;42.522;27.456;2023-06-14T03:23:04;100929.34;;;19.74;63.94
50250;BME280;36133;42.522;27.456;2023-06-14T03:25:31;100920.81;;;19.59;63.54
50250;BME280;36133;42.522;27.456;2023-06-14T03:27:57;100931.25;;;19.74;62.93
50250;BME280;36133;42.522;27.456;2023-06-14T03:30:22;100807.66;;;18.78;62.75
50250;BME280;36133;42.522;27.456;2023-06-14T03:32:48;100844.03;;;19.42;61.40
50250;BME280;36133;42.522;27.456;2023-06-14T03:35:14;100958.84;;;20.24;60.76
50250;BME280;36133;42.522;27.456;2023-06-14T03:37:44;100941.56;;;20.24;60.01
50250;BME280;36133;42.522;27.456;2023-06-14T03:40:10;100954.28;;;20.30;59.43
50250;BME280;36133;42.522;27.456;2023-06-14T03:42:42;100797.06;;;19.62;59.04
50250;BME280;36133;42.522;27.456;2023-06-14T03:45:08;100945.34;;;21.18;57.01
50250;BME280;36133;42.522;27.456;2023-06-14T03:47:34;100953.19;;;21.10;56.69
50250;BME280;36133;42.522;27.456;2023-06-14T03:50:00;100851.06;;;20.07;57.76
50250;BME280;36133;42.522;27.456;2023-06-14T03:52:26;100954.94;;;20.82;57.64
50250;BME280;36133;42.522;27.456;2023-06-14T03:54:52;100960.28;;;20.72;58.38
50250;BME280;36133;42.522;27.456;2023-06-14T03:57:18;100947.22;;;20.05;59.75
50250;BME280;36133;42.522;27.456;2023-06-14T03:59:44;100917.78;;;20.12;59.07
50250;BME280;36133;42.522;27.456;2023-06-14T04:02:10;100921.94;;;20.77;57.27
50250;BME280;36133;42.522;27.456;2023-06-14T04:04:35;100842.97;;;20.45;56.62
50250;BME280;36133;42.522;27.456;2023-06-14T04:07:01;100907.41;;;20.60;57.92
50250;BME280;36133;42.522;27.456;2023-06-14T04:09:29;100956.31;;;21.18;57.12
50250;BME280;36133;42.522;27.456;2023-06-14T04:11:55;100953.75;;;21.89;55.31
50250;BME280;36133;42.522;27.456;2023-06-14T04:14:21;100917.47;;;21.65;54.81
50250;BME280;36133;42.522;27.456;2023-06-14T04:16:48;100839.69;;;20.99;55.61
50250;BME280;36133;42.522;27.456;2023-06-14T04:19:14;100936.28;;;21.78;55.07
50250;BME280;36133;42.522;27.456;2023-06-14T04:21:40;100872.56;;;21.32;55.68
50250;BME280;36133;42.522;27.456;2023-06-14T04:24:06;100899.34;;;21.91;54.52
50250;BME280;36133;42.522;27.456;2023-06-14T04:26:32;100734.13;;;20.85;54.75
50250;BME280;36133;42.522;27.456;2023-06-14T04:29:02;100945.63;;;22.80;52.94
50250;BME280;36133;42.522;27.456;2023-06-14T04:31:28;100959.06;;;23.03;52.46
50250;BME280;36133;42.522;27.456;2023-06-14T04:33:55;100850.72;;;22.88;51.26
50250;BME280;36133;42.522;27.456;2023-06-14T04:36:24;100905.59;;;24.30;48.64
50250;BME280;36133;42.522;27.456;2023-06-14T04:38:50;100890.72;;;24.81;46.85
50250;BME280;36133;42.522;27.456;2023-06-14T04:41:20;100878.59;;;25.08;46.35
50250;BME280;36133;42.522;27.456;2023-06-14T04:43:48;100840.00;;;26.41;42.80
50250;BME280;36133;42.522;27.456;2023-06-14T04:46:18;100978.72;;;28.08;40.68
50250;BME280;36133;42.522;27.456;2023-06-14T04:48:44;100913.31;;;27.64;40.68
50250;BME280;36133;42.522;27.456;2023-06-14T04:51:11;100974.13;;;28.60;40.19
50250;BME280;36133;42.522;27.456;2023-06-14T04:53:38;100915.25;;;27.59;40.86
50250;BME280;36133;42.522;27.456;2023-06-14T04:56:04;100963.28;;;28.02;40.80
50250;BME280;36133;42.522;27.456;2023-06-14T04:58:30;100869.25;;;26.52;42.65
50250;BME280;36133;42.522;27.456;2023-06-14T05:00:56;100987.97;;;28.22;40.63
50250;BME280;36133;42.522;27.456;2023-06-14T05:03:22;101000.16;;;27.26;42.68
50250;BME280;36133;42.522;27.456;2023-06-14T05:05:49;101001.88;;;28.98;39.89
50250;BME280;36133;42.522;27.456;2023-06-14T05:08:16;100978.09;;;28.54;40.08
50250;BME280;36133;42.522;27.456;2023-06-14T05:10:41;100912.81;;;28.00;40.41
50250;BME280;36133;42.522;27.456;2023-06-14T05:13:07;100929.94;;;28.26;40.39
50250;BME280;36133;42.522;27.456;2023-06-14T05:15:33;101011.25;;;29.34;38.48
50250;BME280;36133;42.522;27.456;2023-06-14T05:17:59;100993.34;;;28.38;40.08
50250;BME280;36133;42.522;27.456;2023-06-14T05:20:25;101011.66;;;29.41;38.38
50250;BME280;36133;42.522;27.456;2023-06-14T05:22:54;100986.63;;;28.01;40.05
50250;BME280;36133;42.522;27.456;2023-06-14T05:25:22;101003.56;;;28.61;39.87
50250;BME280;36133;42.522;27.456;2023-06-14T05:27:48;101018.69;;;28.69;39.88
50250;BME280;36133;42.522;27.456;2023-06-14T05:30:14;100960.19;;;28.79;39.08
50250;BME280;36133;42.522;27.456;2023-06-14T05:32:41;101018.09;;;28.34;40.25
50250;BME280;36133;42.522;27.456;2023-06-14T05:35:07;100891.44;;;28.71;38.39
50250;BME280;36133;42.522;27.456;2023-06-14T05:37:33;100982.63;;;28.07;40.67
50250;BME280;36133;42.522;27.456;2023-06-14T05:39:58;101030.00;;;27.39;43.93
50250;BME280;36133;42.522;27.456;2023-06-14T05:42:24;101036.75;;;27.57;43.42
50250;BME280;36133;42.522;27.456;2023-06-14T05:44:50;101025.84;;;27.36;43.31
50250;BME280;36133;42.522;27.456;2023-06-14T05:47:16;101002.22;;;28.16;41.86
50250;BME280;36133;42.522;27.456;2023-06-14T05:49:41;101028.13;;;29.70;39.79
50250;BME280;36133;42.522;27.456;2023-06-14T05:52:07;101034.34;;;30.58;37.51
50250;BME280;36133;42.522;27.456;2023-06-14T05:54:33;100991.50;;;29.91;38.24
50250;BME280;36133;42.522;27.456;2023-06-14T05:56:59;101030.47;;;30.32;38.01
50250;BME280;36133;42.522;27.456;2023-06-14T05:59:27;101048.41;;;30.26;38.40
50250;BME280;36133;42.522;27.456;2023-06-14T06:01:52;100982.34;;;29.03;39.74
50250;BME280;36133;42.522;27.456;2023-06-14T06:04:18;101016.63;;;30.77;37.59
50250;BME280;36133;42.522;27.456;2023-06-14T06:06:45;100977.59;;;30.54;37.64
50250;BME280;36133;42.522;27.456;2023-06-14T06:09:10;101054.91;;;30.35;38.55
50250;BME280;36133;42.522;27.456;2023-06-14T06:11:36;100971.81;;;30.51;37.01
50250;BME280;36133;42.522;27.456;2023-06-14T06:14:04;100947.84;;;31.08;36.15
50250;BME280;36133;42.522;27.456;2023-06-14T06:16:30;101052.81;;;30.68;37.86
50250;BME280;36133;42.522;27.456;2023-06-14T06:18:56;100834.25;;;30.38;36.11
50250;BME280;36133;42.522;27.456;2023-06-14T06:21:21;101011.97;;;32.10;34.84
50250;BME280;36133;42.522;27.456;2023-06-14T06:23:47;101023.31;;;32.14;34.87
50250;BME280;36133;42.522;27.456;2023-06-14T06:26:12;101045.44;;;32.67;34.15
50250;BME280;36133;42.522;27.456;2023-06-14T06:28:38;101032.38;;;33.49;33.15
50250;BME280;36133;42.522;27.456;2023-06-14T06:31:05;100702.94;;;29.19;35.93
50250;BME280;36133;42.522;27.456;2023-06-14T06:33:42;100789.09;;;29.60;36.46
50250;BME280;36133;42.522;27.456;2023-06-14T06:38:45;100898.97;;;30.35;36.24
50250;BME280;36133;42.522;27.456;2023-06-14T06:41:11;100924.81;;;30.72;35.71
50250;BME280;36133;42.522;27.456;2023-06-14T06:43:37;100955.47;;;31.25;34.90
50250;BME280;36133;42.522;27.456;2023-06-14T06:46:02;100856.63;;;30.47;36.03
50250;BME280;36133;42.522;27.456;2023-06-14T06:48:29;100846.19;;;30.30;35.82
50250;BME280;36133;42.522;27.456;2023-06-14T06:50:54;100857.25;;;29.85;36.78
50250;BME280;36133;42.522;27.456;2023-06-14T06:53:20;100941.41;;;30.77;35.90
50250;BME280;36133;42.522;27.456;2023-06-14T06:55:46;101046.53;;;31.74;35.07
50250;BME280;36133;42.522;27.456;2023-06-14T06:58:14;100840.72;;;30.47;35.46
50250;BME280;36133;42.522;27.456;2023-06-14T07:00:41;101051.19;;;31.96;35.02
50250;BME280;36133;42.522;27.456;2023-06-14T07:03:07;100889.56;;;31.77;33.62
50250;BME280;36133;42.522;27.456;2023-06-14T07:05:39;100634.00;;;30.59;33.21
50250;BME280;36133;42.522;27.456;2023-06-14T07:08:14;100916.81;;;33.10;31.44
50250;BME280;36133;42.522;27.456;2023-06-14T07:10:40;101048.22;;;31.31;35.51
50250;BME280;36133;42.522;27.456;2023-06-14T07:13:11;100646.66;;;29.72;34.15
50250;BME280;36133;42.522;27.456;2023-06-14T07:15:37;100901.25;;;31.97;33.08
50250;BME280;36133;42.522;27.456;2023-06-14T07:18:03;100920.38;;;34.58;29.03
50250;BME280;36133;42.522;27.456;2023-06-14T07:20:32;101039.47;;;37.58;26.48
50250;BME280;36133;42.522;27.456;2023-06-14T07:22:58;100800.41;;;34.19;27.88
50250;BME280;36133;42.522;27.456;2023-06-14T07:25:26;101046.81;;;37.18;26.23
50250;BME280;36133;42.522;27.456;2023-06-14T07:27:52;100641.13;;;34.66;25.93
50250;BME280;36133;42.522;27.456;2023-06-14T07:30:19;100804.34;;;34.96;26.74
50250;BME280;36133;42.522;27.456;2023-06-14T07:36:02;100910.22;;;39.99;21.59
50250;BME280;36133;42.522;27.456;2023-06-14T07:38:30;100983.47;;;38.03;24.71
50250;BME280;36133;42.522;27.456;2023-06-14T07:41:00;100654.59;;;38.50;22.22
50250;BME280;36133;42.522;27.456;2023-06-14T07:43:26;100702.75;;;38.87;22.33
50250;BME280;36133;42.522;27.456;2023-06-14T07:45:52;100937.44;;;37.01;24.97
50250;BME280;36133;42.522;27.456;2023-06-14T07:48:24;100673.41;;;37.58;22.97
50250;BME280;36133;42.522;27.456;2023-06-14T07:50:58;100904.97;;;40.61;21.58
50250;BME280;36133;42.522;27.456;2023-06-14T07:53:25;100687.22;;;40.72;19.47
50250;BME280;36133;42.522;27.456;2023-06-14T07:55:54;100777.97;;;40.15;20.57
50250;BME280;36133;42.522;27.456;2023-06-14T07:58:23;100916.31;;;43.38;17.44
50250;BME280;36133;42.522;27.456;2023-06-14T08:00:52;101048.22;;;44.01;18.13
50250;BME280;36133;42.522;27.456;2023-06-14T08:03:20;100696.59;;;37.70;22.61
50250;BME280;36133;42.522;27.456;2023-06-14T08:05:48;100648.75;;;36.81;23.47
50250;BME280;36133;42.522;27.456;2023-06-14T08:08:13;100817.44;;;35.29;25.81
50250;BME280;36133;42.522;27.456;2023-06-14T08:10:42;100671.53;;;33.32;27.48
50250;BME280;36133;42.522;27.456;2023-06-14T08:13:07;100587.13;;;30.61;30.31
50250;BME280;36133;42.522;27.456;2023-06-14T08:15:35;100625.59;;;31.59;29.67
50250;BME280;36133;42.522;27.456;2023-06-14T08:18:03;100812.81;;;31.32;31.56
50250;BME280;36133;42.522;27.456;2023-06-14T08:20:36;100602.75;;;30.71;30.48
50250;BME280;36133;42.522;27.456;2023-06-14T08:23:07;100765.53;;;30.47;32.70
50250;BME280;36133;42.522;27.456;2023-06-14T08:25:34;100935.19;;;31.33;32.38
50250;BME280;36133;42.522;27.456;2023-06-14T08:28:00;100926.94;;;34.21;28.80
50250;BME280;36133;42.522;27.456;2023-06-14T08:30:26;100623.78;;;31.63;29.07
50250;BME280;36133;42.522;27.456;2023-06-14T08:32:52;100706.31;;;33.22;27.90
50250;BME280;36133;42.522;27.456;2023-06-14T08:35:21;100633.16;;;32.90;27.79
50250;BME280;36133;42.522;27.456;2023-06-14T08:37:47;100804.25;;;33.43;28.44
50250;BME280;36133;42.522;27.456;2023-06-14T08:40:23;100634.13;;;34.48;25.90
50250;BME280;36133;42.522;27.456;2023-06-14T08:42:53;100973.91;;;32.31;32.28
50250;BME280;36133;42.522;27.456;2023-06-14T08:45:23;100892.81;;;33.47;30.44
50250;BME280;36133;42.522;27.456;2023-06-14T08:47:51;100707.31;;;33.80;28.80
50250;BME280;36133;42.522;27.456;2023-06-14T08:50:24;100802.63;;;34.58;28.02
50250;BME280;36133;42.522;27.456;2023-06-14T08:53:11;100623.84;;;33.49;27.89
50250;BME280;36133;42.522;27.456;2023-06-14T08:59:00;100795.25;;;42.12;20.03
50250;BME280;36133;42.522;27.456;2023-06-14T09:01:28;100898.31;;;44.01;19.03
50250;BME280;36133;42.522;27.456;2023-06-14T09:03:54;101020.50;;;46.25;17.67
50250;BME280;36133;42.522;27.456;2023-06-14T09:06:25;100705.44;;;45.34;16.93
50250;BME280;36133;42.522;27.456;2023-06-14T09:08:56;100801.13;;;44.21;18.23
50250;BME280;36133;42.522;27.456;2023-06-14T09:11:25;100891.41;;;44.13;18.41
50250;BME280;36133;42.522;27.456;2023-06-14T09:13:52;100953.22;;;43.88;19.03
50250;BME280;36133;42.522;27.456;2023-06-14T09:16:18;100735.84;;;40.44;20.86
50250;BME280;36133;42.522;27.456;2023-06-14T09:18:47;100954.59;;;39.72;22.76
50250;BME280;36133;42.522;27.456;2023-06-14T09:21:23;100859.25;;;39.65;22.53
50250;BME280;36133;42.522;27.456;2023-06-14T09:23:56;100668.22;;;39.23;21.79
50250;BME280;36133;42.522;27.456;2023-06-14T09:26:22;100713.94;;;35.79;25.74
50250;BME280;36133;42.522;27.456;2023-06-14T09:28:50;100585.31;;;37.57;23.68
50250;BME280;36133;42.522;27.456;2023-06-14T09:31:17;100723.22;;;37.92;24.10
50250;BME280;36133;42.522;27.456;2023-06-14T09:33:48;100661.97;;;38.81;23.22
50250;BME280;36133;42.522;27.456;2023-06-14T09:36:26;101007.44;;;42.06;22.01
50250;BME280;36133;42.522;27.456;2023-06-14T09:39:00;101009.53;;;39.51;24.34
50250;BME280;36133;42.522;27.456;2023-06-14T09:41:41;100576.25;;;37.90;23.43
50250;BME280;36133;42.522;27.456;2023-06-14T09:44:11;100903.41;;;41.55;21.69
50250;BME280;36133;42.522;27.456;2023-06-14T09:46:52;100741.28;;;40.22;21.98
50250;BME280;36133;42.522;27.456;2023-06-14T09:49:18;100699.50;;;39.11;23.10
50250;BME280;36133;42.522;27.456;2023-06-14T09:51:45;100731.06;;;37.44;24.43
50250;BME280;36133;42.522;27.456;2023-06-14T09:54:16;100566.13;;;36.19;25.10
50250;BME280;36133;42.522;27.456;2023-06-14T09:56:49;101006.09;;;41.86;21.96
50250;BME280;36133;42.522;27.456;2023-06-14T09:59:26;100812.34;;;40.54;22.62
50250;BME280;36133;42.522;27.456;2023-06-14T10:02:07;100664.22;;;37.80;24.26
50250;BME280;36133;42.522;27.456;2023-06-14T10:05:15;100588.88;;;36.96;24.40
50250;BME280;36133;42.522;27.456;2023-06-14T10:07:53;100899.06;;;38.88;24.80
50250;BME280;36133;42.522;27.456;2023-06-14T10:10:22;100615.00;;;35.70;25.93
50250;BME280;36133;42.522;27.456;2023-06-14T10:12:48;100941.63;;;38.60;24.71
50250;BME280;36133;42.522;27.456;2023-06-14T10:15:23;100793.88;;;39.63;23.12
50250;BME280;36133;42.522;27.456;2023-06-14T10:18:10;100902.19;;;39.74;23.90
50250;BME280;36133;42.522;27.456;2023-06-14T10:21:09;100626.41;;;36.53;25.44
50250;BME280;36133;42.522;27.456;2023-06-14T10:29:28;100649.97;;;37.73;24.44
50250;BME280;36133;42.522;27.456;2023-06-14T10:31:59;101028.16;;;40.02;24.64
50250;BME280;36133;42.522;27.456;2023-06-14T10:34:38;100880.31;;;37.64;26.21
50250;BME280;36133;42.522;27.456;2023-06-14T10:37:14;100770.41;;;37.60;25.71
50250;BME280;36133;42.522;27.456;2023-06-14T10:39:43;100920.25;;;39.01;25.12
50250;BME280;36133;42.522;27.456;2023-06-14T10:42:16;100718.97;;;37.63;25.58
50250;BME280;36133;42.522;27.456;2023-06-14T10:44:49;101031.84;;;40.32;23.37
50250;BME280;36133;42.522;27.456;2023-06-14T10:50:06;100901.69;;;43.14;20.35
50250;BME280;36133;42.522;27.456;2023-06-14T10:52:35;100926.34;;;41.36;21.75
50250;BME280;36133;42.522;27.456;2023-06-14T10:57:45;100752.28;;;41.23;20.24
50250;BME280;36133;42.522;27.456;2023-06-14T11:00:20;100902.09;;;43.02;20.04
50250;BME280;36133;42.522;27.456;2023-06-14T11:05:51;100782.81;;;41.54;20.79
50250;BME280;36133;42.522;27.456;2023-06-14T11:11:11;100874.19;;;42.06;21.36
50250;BME280;36133;42.522;27.456;2023-06-14T11:13:43;100614.28;;;38.00;22.66
50250;BME280;36133;42.522;27.456;2023-06-14T11:16:16;100836.31;;;39.17;23.22
50250;BME280;36133;42.522;27.456;2023-06-14T11:18:44;101012.72;;;38.65;25.21
50250;BME280;36133;42.522;27.456;2023-06-14T11:21:39;101022.00;;;39.08;24.98
50250;BME280;36133;42.522;27.456;2023-06-14T11:24:10;100815.47;;;39.25;23.44
50250;BME280;36133;42.522;27.456;2023-06-14T11:26:37;100887.41;;;39.35;23.76
50250;BME280;36133;42.522;27.456;2023-06-14T11:29:03;100927.06;;;40.52;22.95
50250;BME280;36133;42.522;27.456;2023-06-14T11:31:29;100607.13;;;40.12;21.20
50250;BME280;36133;42.522;27.456;2023-06-14T11:33:59;100858.69;;;41.86;20.47
50250;BME280;36133;42.522;27.456;2023-06-14T11:36:35;100928.38;;;42.81;20.43
50250;BME280;36133;42.522;27.456;2023-06-14T11:39:05;101001.25;;;42.52;20.54
50250;BME280;36133;42.522;27.456;2023-06-14T11:41:44;100668.72;;;41.58;19.46
50250;BME280;36133;42.522;27.456;2023-06-14T11:44:11;100777.09;;;43.31;19.27
50250;BME280;36133;42.522;27.456;2023-06-14T11:46:47;100754.28;;;40.30;21.56
50250;BME280;36133;42.522;27.456;2023-06-14T11:49:13;100573.56;;;39.30;22.31
50250;BME280;36133;42.522;27.456;2023-06-14T11:51:38;100775.09;;;42.60;20.31
50250;BME280;36133;42.522;27.456;2023-06-14T11:54:07;100973.34;;;44.54;19.48
50250;BME280;36133;42.522;27.456;2023-06-14T11:56:34;100629.97;;;42.04;19.10
50250;BME280;36133;42.522;27.456;2023-06-14T11:59:05;100700.06;;;43.14;18.50
50250;BME280;36133;42.522;27.456;2023-06-14T12:01:31;100865.53;;;41.23;22.17
50250;BME280;36133;42.522;27.456;2023-06-14T12:04:03;100825.34;;;43.48;18.94
50250;BME280;36133;42.522;27.456;2023-06-14T12:06:30;100852.34;;;42.10;19.62
50250;BME280;36133;42.522;27.456;2023-06-14T12:09:04;100855.00;;;39.25;22.63
50250;BME280;36133;42.522;27.456;2023-06-14T12:11:34;100816.69;;;38.79;23.29
50250;BME280;36133;42.522;27.456;2023-06-14T12:14:03;100726.50;;;37.05;24.66
50250;BME280;36133;42.522;27.456;2023-06-14T12:16:33;100568.09;;;38.04;22.97
50250;BME280;36133;42.522;27.456;2023-06-14T12:19:08;100551.78;;;37.29;23.03
50250;BME280;36133;42.522;27.456;2023-06-14T12:21:37;100987.56;;;41.51;21.74
50250;BME280;36133;42.522;27.456;2023-06-14T12:24:06;100960.56;;;42.27;21.17
50250;BME280;36133;42.522;27.456;2023-06-14T12:26:33;100575.19;;;39.34;22.36
50250;BME280;36133;42.522;27.456;2023-06-14T12:29:04;100584.09;;;40.62;21.83
50250;BME280;36133;42.522;27.456;2023-06-14T12:31:40;100843.59;;;41.09;22.72
50250;BME280;36133;42.522;27.456;2023-06-14T12:34:16;100739.78;;;42.25;20.82
50250;BME280;36133;42.522;27.456;2023-06-14T12:36:42;100638.22;;;40.60;21.56
50250;BME280;36133;42.522;27.456;2023-06-14T12:39:12;100833.28;;;41.35;21.62
50250;BME280;36133;42.522;27.456;2023-06-14T12:41:45;100601.88;;;41.42;20.60
50250;BME280;36133;42.522;27.456;2023-06-14T12:44:15;100501.66;;;39.57;21.41
50250;BME280;36133;42.522;27.456;2023-06-14T12:46:42;100621.38;;;36.78;23.78
50250;BME280;36133;42.522;27.456;2023-06-14T12:49:10;100738.31;;;36.03;26.80
50250;BME280;36133;42.522;27.456;2023-06-14T12:51:49;100512.28;;;34.70;27.89
50250;BME280;36133;42.522;27.456;2023-06-14T12:54:17;100555.91;;;34.95;28.03
50250;BME280;36133;42.522;27.456;2023-06-14T12:56:48;100540.47;;;34.12;29.21
50250;BME280;36133;42.522;27.456;2023-06-14T12:59:14;100797.47;;;34.93;30.31
50250;BME280;36133;42.522;27.456;2023-06-14T13:01:42;100452.94;;;33.91;28.91
50250;BME280;36133;42.522;27.456;2023-06-14T13:04:19;100538.81;;;34.23;28.63
50250;BME280;36133;42.522;27.456;2023-06-14T13:06:53;100515.44;;;34.68;27.48
50250;BME280;36133;42.522;27.456;2023-06-14T13:09:19;100928.44;;;36.95;27.77
50250;BME280;36133;42.522;27.456;2023-06-14T13:11:48;100531.13;;;34.45;28.22
50250;BME280;36133;42.522;27.456;2023-06-14T13:14:14;100816.69;;;35.68;28.66
50250;BME280;36133;42.522;27.456;2023-06-14T13:16:40;100824.56;;;36.31;27.25
50250;BME280;36133;42.522;27.456;2023-06-14T13:19:07;100969.66;;;36.48;28.20